Aeroporto :
LOGIN :

Iscrizione | Disclaimer

   EN    FR    IT 

 










Sommario :    VFR   VFR Marginale   IFR   IFR Intensivo   IFR Molto Intensivo
Visibilità : 
Base nubi : 
>= 8 km
>= 3000ft
5 / 8 km
1000 / 3000 ft
1500m / 5 km
500 / 1000 ft
800 / 1500m
200 / 500 ft
< 800m
< 200 ft
Simboli :   Temporali  Nebbia  Neve Forte  Precipitazioni Forti  Vento > 20 kt
SIGMETs :   Varie  Temporali  Ghiacco  Turbolenza  Onda orograficha  Ceneri Vulcaniche






- Altitudine del aeroporto : 90 ft
- Codice IATA : NTE


LFRS - Nantes

ULTIMO METAR :
  • 202130Z AUTO 24010KT 190V260 9000 -RA BKN007/// BKN015/// BKN023/// ///TCU 19/18 Q1008 TEMPO SHRA BKN012 BKN020CB

METARs OBSOLETI :
  • 202100Z AUTO 19005KT 9999 BKN012 OVC025 20/19 Q1008 TEMPO 24015G25KT SHRA SCT012 BKN020CB
  • 202030Z AUTO 18004KT 9000 -RA SCT019/// SCT066/// BKN110/// ///TCU 20/19 Q1007 TEMPO 24015G25KT SHRA SCT012 BKN020CB
  • 202000Z AUTO 19004KT 160V220 9999 SCT017/// SCT050/// OVC120/// //////TCU 20/18 Q1007 TEMPO 24015G25KT TSRA SCT012 BKN020CB
  • 201930Z AUTO 23004KT 200V260 9999 -RA BKN020/// BKN086/// BKN110/// //////TCU 20/19 Q1007 TEMPO 24015G25KT TSRA SCT012 BKN020CB
  • 201900Z AUTO 24004KT 210V340 9999 -RA FEW026/// SCT047/// BKN068/// ///TCU 21/19 Q1007 TEMPO 24015G25KT TSRA SCT012 BKN020CB
  • 201830Z AUTO 25006KT 9999 SCT018/// SCT024/// BKN049/// ///TCU 21/18 Q1008 TEMPO 24015G25KT TSRA SCT012 BKN020CB
  • 201800Z AUTO 25006KT 230V290 9999 FEW020 BKN049 BKN072 22/18 Q1008 TEMPO 24015G25KT TSRA SCT012 BKN020CB
  • 201730Z AUTO 26006KT 9999 SCT020 BKN048 BKN054 22/18 Q1007 TEMPO 24015G25KT TSRA SCT012 BKN020CB
  • 201700Z AUTO 24008KT 210V280 9999 SCT021 BKN028 BKN050 23/18 Q1008 TEMPO 24015G25KT 3000 TSRA SCT010 BKN020CB

TAF AMD TAF LFRS
Valido dal 20 a 21 ore il 22 a 00 ore UTC


202138Z 2021/2124 24008KT 9999 SCT020 BKN050
TEMPO 2021/2024 SHRA BKN007 BKN020CB
TEMPO 2100/2106 3000 RA BKN008 BKN020TCU
BECMG 2105/2107 32008KT
TEMPO 2106/2110 BKN010
ATIS : +33 2 40 05 12 74



MetMap, La meteo Aeronautica in un colpo d'occhio ! - Copyright ORBIFLY Dicembre 2007 - Disclaimer

ORBIFLY MET'MAP TEAM :

Programmazione e sviluppo : Alexandra Zaïnal
Concezione : Baudouin d'Aumeries
Supporto tecnico e logistico : Manuel Goepfert
Aiuto : Marc-Olivier Méhu
Aiuto per la traduzione : Arnaldo La Scala




FONTI E CREDITI :

   NOAA